Terminal Aerodrome Forecast
Issued by NWS

Current Version | Previous Version | Graphics & Text | Print | Product List | Glossary On
Versions: 1 2 3 4 5 6 7 8 9 10 11 12 13 14 15 16 17 18 19 20 21 22 23 24 25 26 27 28 29 30 31 32
000
FTUS41 KILN 230500 RRA
TAFLUK
TAF
KLUK 230540Z 2306/2406 19008KT P6SM BKN100
      TEMPO 2311/2315 BKN030 OVC080
     FM231500 14010KT P6SM VCSH BKN030 OVC040
      TEMPO 2319/2322 4SM -SHRA BR OVC018
     FM232200 14012G18KT 2SM SHRA BR OVC012
     FM240400 19015G25KT 5SM -SHRA BR OVC010=

USA.gov is the U.S. government's official web portal to all federal, state and local government web resources and services.